Time;durP1;ratioP1;P1;durP2;ratioP2;P2;SDS_P1;SDS_P2;PMS_P1;PMS_P2;Temp;Humidity;BMP_temperature;BMP_pressure;BME280_temperature;BME280_humidity;BME280_pressure;Samples;Min_cycle;Max_cycle;Signal;HPM_P1;HPM_P2
2021/11/08 00:14:28;;;;;;;6.50;4.20;;;;;;;8.44;100.00;99728.52;709053;1208;113716;-74
2021/11/08 00:29:31;;;;;;;9.60;4.80;;;;;;;8.45;100.00;99740.66;709017;1209;115015;-74
2021/11/08 00:44:35;;;;;;;14.35;4.90;;;;;;;8.46;100.00;99747.55;709104;1212;113993;-75
2021/11/08 00:59:38;;;;;;;12.95;4.90;;;;;;;8.55;100.00;99755.53;709018;1209;113640;-74
2021/11/08 01:14:41;;;;;;;41.33;15.53;;;;;;;8.49;100.00;99743.84;708716;1209;113937;-73
2021/11/08 01:29:44;;;;;;;63.40;21.70;;;;;;;8.46;100.00;99758.00;708797;1209;115381;-74
2021/11/08 01:44:47;;;;;;;42.75;18.90;;;;;;;8.50;100.00;99758.57;708745;1209;114388;-73
2021/11/08 01:59:49;;;;;;;42.80;16.30;;;;;;;8.53;100.00;99778.39;708764;1212;113839;-73
2021/11/08 02:14:52;;;;;;;32.30;11.85;;;;;;;8.61;100.00;99789.00;708713;1212;114168;-73
2021/11/08 02:29:55;;;;;;;75.50;25.03;;;;;;;8.60;100.00;99788.15;708653;1212;113673;-73
2021/11/08 02:44:58;;;;;;;20.15;8.15;;;;;;;8.58;100.00;99818.84;708780;1208;113710;-73
2021/11/08 03:00:03;;;;;;;39.10;18.20;;;;;;;8.55;100.00;99836.59;708791;1209;114246;-74
2021/11/08 03:30:17;;;;;;;13.00;5.97;;;;;;;8.50;100.00;99863.14;708656;1209;114428;-74
2021/11/08 03:45:19;;;;;;;13.00;6.60;;;;;;;8.42;100.00;99876.83;708748;1212;114479;-73
2021/11/08 04:00:24;;;;;;;76.35;28.20;;;;;;;8.43;100.00;99883.72;709002;1185;114586;-73
2021/11/08 04:15:31;;;;;;;24.60;14.30;;;;;;;8.44;100.00;99908.06;708899;1200;114620;-73
2021/11/08 04:30:37;;;;;;;19.35;10.35;;;;;;;8.52;100.00;99904.84;708672;1186;114139;-74
2021/11/08 05:31:24;;;;;;;10.85;7.50;;;;;;;8.47;100.00;99941.81;708704;1212;114271;-75
2021/11/08 05:46:27;;;;;;;10.65;7.55;;;;;;;8.47;100.00;99953.11;709107;1198;113914;-75
2021/11/08 07:02:53;;;;;;;20.80;8.90;;;;;;;8.68;100.00;100054.22;709918;1212;114305;-72
2021/11/08 07:17:56;;;;;;;18.55;9.80;;;;;;;8.71;100.00;100080.13;710125;1183;114148;-75
2021/11/08 07:32:59;;;;;;;12.47;6.90;;;;;;;8.75;100.00;100105.07;710098;1190;114017;-74
2021/11/08 07:48:04;;;;;;;15.27;7.87;;;;;;;8.78;100.00;100106.60;710094;1198;114351;-75
2021/11/08 08:03:12;;;;;;;12.10;7.60;;;;;;;8.83;100.00;100120.95;710139;1209;114145;-73
2021/11/08 08:18:15;;;;;;;68.90;24.20;;;;;;;9.01;100.00;100143.09;710418;1184;113977;-72
2021/11/08 08:33:18;;;;;;;36.00;15.10;;;;;;;9.19;100.00;100162.48;710343;1209;114523;-76
2021/11/08 08:48:21;;;;;;;17.83;8.33;;;;;;;9.33;100.00;100196.17;709864;1209;114217;-76
2021/11/08 09:03:23;;;;;;;10.20;6.50;;;;;;;9.78;100.00;100213.34;709899;1209;114482;-76
2021/11/08 09:18:25;;;;;;;9.20;5.40;;;;;;;9.93;100.00;100240.00;710119;1208;115989;-76
2021/11/08 09:33:27;;;;;;;9.70;4.65;;;;;;;10.23;100.00;100240.13;711783;1209;114021;-76
2021/11/08 09:48:29;;;;;;;45.33;22.97;;;;;;;10.38;100.00;100256.33;709853;1209;114303;-75
2021/11/08 10:03:33;;;;;;;15.30;8.40;;;;;;;11.33;100.00;100262.70;709710;1212;115082;-75
2021/11/08 10:18:37;;;;;;;7.80;5.60;;;;;;;11.46;100.00;100268.48;709992;1208;116377;-75
2021/11/08 10:33:42;;;;;;;5.80;4.30;;;;;;;11.60;100.00;100274.26;709539;1208;115471;-74
2021/11/08 10:48:48;;;;;;;8.37;4.93;;;;;;;11.74;100.00;100286.95;709919;1209;114159;-74
2021/11/08 11:03:54;;;;;;;12.63;6.45;;;;;;;11.65;100.00;100300.94;710391;1185;114576;-76
2021/11/08 11:19:02;;;;;;;5.30;3.50;;;;;;;11.31;100.00;100309.31;710553;1212;114978;-76
2021/11/08 11:34:14;;;;;;;9.90;4.65;;;;;;;11.23;100.00;100322.28;710269;1208;115503;-72
2021/11/08 11:49:18;;;;;;;7.20;4.10;;;;;;;11.31;100.00;100323.26;710274;1212;114141;-73
2021/11/08 12:04:21;;;;;;;8.15;6.00;;;;;;;11.48;100.00;100332.23;710442;1212;115603;-74
2021/11/08 12:19:28;;;;;;;7.50;5.50;;;;;;;11.42;100.00;100355.61;709136;1208;114448;-75
2021/11/08 12:34:45;;;;;;;85.60;28.00;;;;;;;10.74;100.00;100395.71;712210;1209;114000;-71
2021/11/08 12:49:54;;;;;;;19.10;8.63;;;;;;;10.28;100.00;100410.95;711726;1184;114705;-73
2021/11/08 13:05:05;;;;;;;22.50;12.40;;;;;;;10.22;100.00;100420.17;710910;1211;114637;-72
2021/11/08 13:20:08;;;;;;;36.90;10.90;;;;;;;10.06;100.00;100454.71;710341;1208;114637;-73
2021/11/08 13:35:28;;;;;;;32.10;10.50;;;;;;;10.04;100.00;100476.77;711143;1208;115218;-73
2021/11/08 13:50:39;;;;;;;20.70;10.07;;;;;;;9.87;100.00;100499.11;712099;1184;114444;-72
2021/11/08 14:05:49;;;;;;;57.85;18.05;;;;;;;9.85;100.00;100512.34;711519;1209;115789;-72
2021/11/08 14:21:07;;;;;;;21.83;9.98;;;;;;;9.77;100.00;100533.92;711625;1209;115106;-73
2021/11/08 14:36:20;;;;;;;235.20;63.60;;;;;;;9.53;100.00;100541.13;710685;1212;114442;-73
2021/11/08 14:51:24;;;;;;;30.75;13.00;;;;;;;9.55;100.00;100565.41;711263;1208;114801;-73
2021/11/08 15:06:27;;;;;;;53.40;21.70;;;;;;;9.41;100.00;100600.53;710680;1212;115457;-72
2021/11/08 15:21:34;;;;;;;153.70;61.75;;;;;;;9.36;100.00;100634.09;710643;1212;115007;-75
2021/11/08 15:36:40;;;;;;;35.80;17.60;;;;;;;9.32;100.00;100643.99;710075;1209;115323;-73
2021/11/08 15:51:44;;;;;;;50.20;18.70;;;;;;;9.26;100.00;100652.31;709229;1209;114576;-73
2021/11/08 16:06:47;;;;;;;78.70;25.80;;;;;;;9.22;100.00;100674.44;709810;1206;115495;-72
2021/11/08 16:21:50;;;;;;;73.55;20.10;;;;;;;9.14;100.00;100704.63;710189;1208;114806;-72
2021/11/08 16:36:52;;;;;;;50.00;19.00;;;;;;;9.09;100.00;100735.58;710480;1209;114741;-72
2021/11/08 16:51:58;;;;;;;51.95;16.70;;;;;;;9.03;100.00;100749.11;710247;1193;114198;-73
2021/11/08 17:07:03;;;;;;;93.90;26.55;;;;;;;9.03;100.00;100777.05;710567;1208;114611;-73
2021/11/08 17:22:07;;;;;;;115.95;42.60;;;;;;;8.96;100.00;100801.07;710641;1209;114510;-73
2021/11/08 17:37:12;;;;;;;57.93;20.20;;;;;;;8.82;100.00;100817.77;710267;1189;114360;-74
2021/11/08 17:52:15;;;;;;;62.45;26.25;;;;;;;8.66;100.00;100843.36;710328;1184;114179;-79
2021/11/08 18:07:18;;;;;;;85.00;35.75;;;;;;;8.57;100.00;100870.99;710524;1184;114158;-77
2021/11/08 18:23:11;;;;;;;48.10;22.50;;;;;;;8.45;100.00;100883.14;710320;1184;114633;-78
2021/11/08 18:37:47;;;;;;;479.10;194.15;;;;;;;8.16;100.00;100883.34;710368;1182;114499;-78
2021/11/08 18:52:50;;;;;;;98.90;44.53;;;;;;;7.95;100.00;100929.23;710743;1208;116168;-75
2021/11/08 19:22:56;;;;;;;187.90;76.00;;;;;;;7.79;100.00;100951.14;710291;1184;114386;-75
2021/11/08 19:38:00;;;;;;;108.25;46.70;;;;;;;7.59;100.00;100970.72;710657;1188;114347;-76
2021/11/08 19:53:09;;;;;;;111.40;46.20;;;;;;;7.47;100.00;100990.63;710378;1184;114592;-76
2021/11/08 20:08:12;;;;;;;114.85;46.10;;;;;;;7.28;100.00;101027.48;709621;1187;114338;-77
2021/11/08 20:23:17;;;;;;;223.15;81.85;;;;;;;7.07;100.00;101042.69;710418;1192;115398;-77
2021/11/08 20:38:25;;;;;;;127.00;50.90;;;;;;;6.88;100.00;101065.64;710649;1183;114901;-75
2021/11/08 20:53:35;;;;;;;152.55;54.30;;;;;;;6.57;100.00;101096.12;710664;1184;114559;-74
2021/11/08 21:23:41;;;;;;;126.30;38.50;;;;;;;5.80;100.00;101128.14;710705;1183;114586;-75
2021/11/08 21:38:44;;;;;;;72.67;25.03;;;;;;;5.63;100.00;101147.27;710451;1184;113850;-74
2021/11/08 21:53:46;;;;;;;45.77;19.13;;;;;;;5.37;100.00;101176.45;711216;1184;114488;-75
2021/11/08 22:08:49;;;;;;;83.45;29.95;;;;;;;5.05;100.00;101189.35;711665;1184;114075;-74
2021/11/08 22:23:51;;;;;;;53.40;18.05;;;;;;;4.78;100.00;101205.41;711153;1184;114071;-76
2021/11/08 22:38:53;;;;;;;43.50;16.50;;;;;;;4.62;100.00;101226.12;710841;1183;114414;-74
2021/11/08 22:53:56;;;;;;;82.40;26.75;;;;;;;4.39;100.00;101241.02;710991;1197;114431;-77
2021/11/08 23:08:59;;;;;;;47.10;19.90;;;;;;;3.97;100.00;101262.85;710709;1208;114670;-74
2021/11/08 23:24:04;;;;;;;56.23;24.80;;;;;;;3.80;100.00;101277.44;710503;1188;114543;-74
2021/11/08 23:39:06;;;;;;;120.27;40.83;;;;;;;3.67;100.00;101294.45;710946;1196;114051;-74
2021/11/08 23:54:09;;;;;;;133.40;49.70;;;;;;;3.49;100.00;101302.09;709680;1184;115205;-74
